sensor_id;sensor_type;location;lat;lon;timestamp;temperature;humidity
16732;DHT22;8484;50.904;9.192;2024-03-08T00:02:35;1.20;99.90
16732;DHT22;8484;50.904;9.192;2024-03-08T00:05:02;1.20;99.90
16732;DHT22;8484;50.904;9.192;2024-03-08T00:07:29;0.90;99.90
16732;DHT22;8484;50.904;9.192;2024-03-08T00:09:57;0.90;99.90
16732;DHT22;8484;50.904;9.192;2024-03-08T00:12:24;1.10;99.90
16732;DHT22;8484;50.904;9.192;2024-03-08T00:14:51;1.20;99.90
16732;DHT22;8484;50.904;9.192;2024-03-08T00:17:20;1.30;99.90
16732;DHT22;8484;50.904;9.192;2024-03-08T00:19:48;1.50;99.90
16732;DHT22;8484;50.904;9.192;2024-03-08T00:22:15;1.30;99.90
16732;DHT22;8484;50.904;9.192;2024-03-08T00:24:42;1.30;99.90
16732;DHT22;8484;50.904;9.192;2024-03-08T00:27:10;1.20;99.90
16732;DHT22;8484;50.904;9.192;2024-03-08T00:29:37;1.20;99.90
16732;DHT22;8484;50.904;9.192;2024-03-08T00:32:05;1.40;99.90
16732;DHT22;8484;50.904;9.192;2024-03-08T00:34:35;1.20;99.90
16732;DHT22;8484;50.904;9.192;2024-03-08T00:37:03;1.20;99.90
16732;DHT22;8484;50.904;9.192;2024-03-08T00:39:30;0.90;99.90
16732;DHT22;8484;50.904;9.192;2024-03-08T00:41:57;0.80;99.90
16732;DHT22;8484;50.904;9.192;2024-03-08T00:44:25;0.70;99.90
16732;DHT22;8484;50.904;9.192;2024-03-08T00:46:52;0.60;99.90
16732;DHT22;8484;50.904;9.192;2024-03-08T00:49:19;0.60;99.90
16732;DHT22;8484;50.904;9.192;2024-03-08T00:51:45;0.60;99.90
16732;DHT22;8484;50.904;9.192;2024-03-08T00:54:12;0.70;99.90
16732;DHT22;8484;50.904;9.192;2024-03-08T00:56:39;0.80;99.90
16732;DHT22;8484;50.904;9.192;2024-03-08T00:59:07;0.90;99.90
16732;DHT22;8484;50.904;9.192;2024-03-08T01:01:35;1.00;99.90
16732;DHT22;8484;50.904;9.192;2024-03-08T01:04:05;1.00;99.90
16732;DHT22;8484;50.904;9.192;2024-03-08T01:06:34;1.10;99.90
16732;DHT22;8484;50.904;9.192;2024-03-08T01:09:03;1.00;99.90
16732;DHT22;8484;50.904;9.192;2024-03-08T01:11:32;1.10;99.90
16732;DHT22;8484;50.904;9.192;2024-03-08T01:13:59;1.30;99.90
16732;DHT22;8484;50.904;9.192;2024-03-08T01:16:26;1.30;99.90
16732;DHT22;8484;50.904;9.192;2024-03-08T01:18:55;1.30;99.90
16732;DHT22;8484;50.904;9.192;2024-03-08T01:21:21;1.20;99.90
16732;DHT22;8484;50.904;9.192;2024-03-08T01:23:49;1.20;99.90
16732;DHT22;8484;50.904;9.192;2024-03-08T01:26:16;1.10;99.90
16732;DHT22;8484;50.904;9.192;2024-03-08T01:28:42;1.10;99.90
16732;DHT22;8484;50.904;9.192;2024-03-08T01:31:09;1.00;99.90
16732;DHT22;8484;50.904;9.192;2024-03-08T01:33:36;0.90;99.90
16732;DHT22;8484;50.904;9.192;2024-03-08T01:36:05;1.10;99.90
16732;DHT22;8484;50.904;9.192;2024-03-08T01:38:32;0.90;99.90
16732;DHT22;8484;50.904;9.192;2024-03-08T01:40:59;0.60;99.90
16732;DHT22;8484;50.904;9.192;2024-03-08T01:43:28;0.50;99.90
16732;DHT22;8484;50.904;9.192;2024-03-08T01:45:56;0.40;99.90
16732;DHT22;8484;50.904;9.192;2024-03-08T01:48:24;0.40;99.90
16732;DHT22;8484;50.904;9.192;2024-03-08T01:50:52;0.40;99.90
16732;DHT22;8484;50.904;9.192;2024-03-08T01:53:22;0.20;99.90
16732;DHT22;8484;50.904;9.192;2024-03-08T01:55:50;0.30;99.90
16732;DHT22;8484;50.904;9.192;2024-03-08T01:58:18;0.20;99.90
16732;DHT22;8484;50.904;9.192;2024-03-08T02:00:48;0.30;99.90
16732;DHT22;8484;50.904;9.192;2024-03-08T02:03:15;0.40;99.90
16732;DHT22;8484;50.904;9.192;2024-03-08T02:05:42;0.40;99.90
16732;DHT22;8484;50.904;9.192;2024-03-08T02:08:10;0.30;99.90
16732;DHT22;8484;50.904;9.192;2024-03-08T02:10:41;0.40;99.90
16732;DHT22;8484;50.904;9.192;2024-03-08T02:13:08;0.40;99.90
16732;DHT22;8484;50.904;9.192;2024-03-08T02:16:00;0.50;99.90
16732;DHT22;8484;50.904;9.192;2024-03-08T02:18:27;0.40;99.90
16732;DHT22;8484;50.904;9.192;2024-03-08T02:20:57;0.30;99.90
16732;DHT22;8484;50.904;9.192;2024-03-08T02:23:25;0.20;99.90
16732;DHT22;8484;50.904;9.192;2024-03-08T02:25:53;0.20;99.90
16732;DHT22;8484;50.904;9.192;2024-03-08T02:28:20;0.20;99.90
16732;DHT22;8484;50.904;9.192;2024-03-08T02:30:47;0.20;99.90
16732;DHT22;8484;50.904;9.192;2024-03-08T02:33:15;0.10;99.90
16732;DHT22;8484;50.904;9.192;2024-03-08T02:35:43;0.20;99.90
16732;DHT22;8484;50.904;9.192;2024-03-08T02:38:13;0.30;99.90
16732;DHT22;8484;50.904;9.192;2024-03-08T02:40:41;0.40;99.90
16732;DHT22;8484;50.904;9.192;2024-03-08T02:43:08;0.30;99.90
16732;DHT22;8484;50.904;9.192;2024-03-08T02:45:35;0.30;99.90
16732;DHT22;8484;50.904;9.192;2024-03-08T02:48:03;0.30;99.90
16732;DHT22;8484;50.904;9.192;2024-03-08T02:50:30;0.40;99.90
16732;DHT22;8484;50.904;9.192;2024-03-08T02:52:56;0.40;99.90
16732;DHT22;8484;50.904;9.192;2024-03-08T02:55:25;0.30;99.90
16732;DHT22;8484;50.904;9.192;2024-03-08T02:57:52;0.20;99.90
16732;DHT22;8484;50.904;9.192;2024-03-08T03:00:20;0.30;99.90
16732;DHT22;8484;50.904;9.192;2024-03-08T03:02:48;0.20;99.90
16732;DHT22;8484;50.904;9.192;2024-03-08T03:05:17;0.20;99.90
16732;DHT22;8484;50.904;9.192;2024-03-08T03:07:45;0.10;99.90
16732;DHT22;8484;50.904;9.192;2024-03-08T03:10:12;0.20;99.90
16732;DHT22;8484;50.904;9.192;2024-03-08T03:12:44;0.20;99.90
16732;DHT22;8484;50.904;9.192;2024-03-08T03:15:11;0.20;99.90
16732;DHT22;8484;50.904;9.192;2024-03-08T03:17:38;0.20;99.90
16732;DHT22;8484;50.904;9.192;2024-03-08T03:20:07;0.20;99.90
16732;DHT22;8484;50.904;9.192;2024-03-08T03:22:38;0.10;99.90
16732;DHT22;8484;50.904;9.192;2024-03-08T03:25:07;0.10;99.90
16732;DHT22;8484;50.904;9.192;2024-03-08T03:27:35;0.00;99.90
16732;DHT22;8484;50.904;9.192;2024-03-08T03:30:04;0.10;99.90
16732;DHT22;8484;50.904;9.192;2024-03-08T03:33:10;0.10;99.90
16732;DHT22;8484;50.904;9.192;2024-03-08T03:35:38;0.00;99.90
16732;DHT22;8484;50.904;9.192;2024-03-08T03:38:05;0.00;99.90
16732;DHT22;8484;50.904;9.192;2024-03-08T03:40:33;0.10;99.90
16732;DHT22;8484;50.904;9.192;2024-03-08T03:43:00;0.00;99.90
16732;DHT22;8484;50.904;9.192;2024-03-08T03:45:28;0.10;99.90
16732;DHT22;8484;50.904;9.192;2024-03-08T03:47:55;0.00;99.90
16732;DHT22;8484;50.904;9.192;2024-03-08T03:50:23;-0.10;99.90
16732;DHT22;8484;50.904;9.192;2024-03-08T03:52:50;-0.10;99.90
16732;DHT22;8484;50.904;9.192;2024-03-08T03:55:17;0.00;99.90
16732;DHT22;8484;50.904;9.192;2024-03-08T03:57:45;-0.10;99.90
16732;DHT22;8484;50.904;9.192;2024-03-08T04:00:13;-0.10;99.90
16732;DHT22;8484;50.904;9.192;2024-03-08T04:02:40;-0.10;99.90
16732;DHT22;8484;50.904;9.192;2024-03-08T04:05:08;-0.20;99.90
16732;DHT22;8484;50.904;9.192;2024-03-08T04:07:37;-0.10;99.90
16732;DHT22;8484;50.904;9.192;2024-03-08T04:10:05;-0.10;99.90
16732;DHT22;8484;50.904;9.192;2024-03-08T04:12:33;-0.20;99.90
16732;DHT22;8484;50.904;9.192;2024-03-08T04:15:00;-0.10;99.90
16732;DHT22;8484;50.904;9.192;2024-03-08T04:17:27;-0.20;99.90
16732;DHT22;8484;50.904;9.192;2024-03-08T04:19:54;-0.30;99.90
16732;DHT22;8484;50.904;9.192;2024-03-08T04:22:21;-0.30;99.90
16732;DHT22;8484;50.904;9.192;2024-03-08T04:24:49;-0.30;99.90
16732;DHT22;8484;50.904;9.192;2024-03-08T04:27:16;-0.30;99.90
16732;DHT22;8484;50.904;9.192;2024-03-08T04:29:43;-0.40;99.90
16732;DHT22;8484;50.904;9.192;2024-03-08T04:32:10;-0.20;99.90
16732;DHT22;8484;50.904;9.192;2024-03-08T04:34:39;-0.30;99.90
16732;DHT22;8484;50.904;9.192;2024-03-08T04:37:06;-0.30;99.90
16732;DHT22;8484;50.904;9.192;2024-03-08T04:39:36;-0.30;99.90
16732;DHT22;8484;50.904;9.192;2024-03-08T04:42:05;-0.30;99.90
16732;DHT22;8484;50.904;9.192;2024-03-08T04:44:35;-0.30;99.90
16732;DHT22;8484;50.904;9.192;2024-03-08T04:47:03;-0.30;99.90
16732;DHT22;8484;50.904;9.192;2024-03-08T04:49:31;-0.40;99.90
16732;DHT22;8484;50.904;9.192;2024-03-08T04:52:00;-0.40;99.90
16732;DHT22;8484;50.904;9.192;2024-03-08T04:54:28;-0.30;99.90
16732;DHT22;8484;50.904;9.192;2024-03-08T04:56:55;-0.30;99.90
16732;DHT22;8484;50.904;9.192;2024-03-08T04:59:23;-0.50;99.90
16732;DHT22;8484;50.904;9.192;2024-03-08T05:01:50;-0.50;99.90
16732;DHT22;8484;50.904;9.192;2024-03-08T05:04:17;-0.50;99.90
16732;DHT22;8484;50.904;9.192;2024-03-08T05:06:44;-0.60;99.90
16732;DHT22;8484;50.904;9.192;2024-03-08T05:09:11;-0.60;99.90
16732;DHT22;8484;50.904;9.192;2024-03-08T05:11:41;-0.60;99.90
16732;DHT22;8484;50.904;9.192;2024-03-08T05:14:08;-0.50;99.90
16732;DHT22;8484;50.904;9.192;2024-03-08T05:16:36;-0.30;99.90
16732;DHT22;8484;50.904;9.192;2024-03-08T05:19:03;-0.40;99.90
16732;DHT22;8484;50.904;9.192;2024-03-08T05:21:30;-0.50;99.90
16732;DHT22;8484;50.904;9.192;2024-03-08T05:23:57;-0.50;99.90
16732;DHT22;8484;50.904;9.192;2024-03-08T05:26:23;-0.50;99.90
16732;DHT22;8484;50.904;9.192;2024-03-08T05:28:50;-0.50;99.90
16732;DHT22;8484;50.904;9.192;2024-03-08T05:31:20;-0.60;99.90
16732;DHT22;8484;50.904;9.192;2024-03-08T05:33:50;-0.60;99.90
16732;DHT22;8484;50.904;9.192;2024-03-08T05:36:16;-0.60;99.90
16732;DHT22;8484;50.904;9.192;2024-03-08T05:38:43;-0.60;99.90
16732;DHT22;8484;50.904;9.192;2024-03-08T05:41:10;-0.60;99.90
16732;DHT22;8484;50.904;9.192;2024-03-08T05:43:40;-0.60;99.90
16732;DHT22;8484;50.904;9.192;2024-03-08T05:46:07;-0.60;99.90
16732;DHT22;8484;50.904;9.192;2024-03-08T05:48:34;-0.60;99.90
16732;DHT22;8484;50.904;9.192;2024-03-08T05:51:02;-0.60;99.90
16732;DHT22;8484;50.904;9.192;2024-03-08T05:53:29;-0.60;99.90
16732;DHT22;8484;50.904;9.192;2024-03-08T05:55:57;-0.60;99.90
16732;DHT22;8484;50.904;9.192;2024-03-08T05:58:24;-0.60;99.90
16732;DHT22;8484;50.904;9.192;2024-03-08T06:00:51;-0.60;99.90
16732;DHT22;8484;50.904;9.192;2024-03-08T06:03:18;-0.60;99.90
16732;DHT22;8484;50.904;9.192;2024-03-08T06:05:47;-0.50;99.90
16732;DHT22;8484;50.904;9.192;2024-03-08T06:08:16;-0.50;99.90
16732;DHT22;8484;50.904;9.192;2024-03-08T06:10:44;-0.60;99.90
16732;DHT22;8484;50.904;9.192;2024-03-08T06:13:11;-0.30;99.90
16732;DHT22;8484;50.904;9.192;2024-03-08T06:15:38;-0.20;99.90
16732;DHT22;8484;50.904;9.192;2024-03-08T06:18:05;-0.10;99.90
16732;DHT22;8484;50.904;9.192;2024-03-08T06:20:36;-0.10;99.90
16732;DHT22;8484;50.904;9.192;2024-03-08T06:23:03;0.00;99.90
16732;DHT22;8484;50.904;9.192;2024-03-08T06:25:31;-0.10;99.90
16732;DHT22;8484;50.904;9.192;2024-03-08T06:27:58;-0.10;99.90
16732;DHT22;8484;50.904;9.192;2024-03-08T06:30:25;0.10;99.90
16732;DHT22;8484;50.904;9.192;2024-03-08T06:32:52;0.30;99.90
16732;DHT22;8484;50.904;9.192;2024-03-08T06:35:18;0.40;99.90
16732;DHT22;8484;50.904;9.192;2024-03-08T06:37:45;0.50;99.90
16732;DHT22;8484;50.904;9.192;2024-03-08T06:40:12;0.60;99.90
16732;DHT22;8484;50.904;9.192;2024-03-08T06:42:41;0.80;99.90
16732;DHT22;8484;50.904;9.192;2024-03-08T06:45:09;0.80;99.90
16732;DHT22;8484;50.904;9.192;2024-03-08T06:47:36;1.00;99.90
16732;DHT22;8484;50.904;9.192;2024-03-08T06:50:03;1.20;99.90
16732;DHT22;8484;50.904;9.192;2024-03-08T06:52:31;1.10;99.90
16732;DHT22;8484;50.904;9.192;2024-03-08T06:54:58;1.30;99.90
16732;DHT22;8484;50.904;9.192;2024-03-08T06:57:27;1.50;99.90
16732;DHT22;8484;50.904;9.192;2024-03-08T06:59:56;1.70;99.90
16732;DHT22;8484;50.904;9.192;2024-03-08T07:02:23;1.90;99.90
16732;DHT22;8484;50.904;9.192;2024-03-08T07:04:51;2.00;99.90
16732;DHT22;8484;50.904;9.192;2024-03-08T07:07:18;2.60;99.90
16732;DHT22;8484;50.904;9.192;2024-03-08T07:09:46;2.50;99.90
16732;DHT22;8484;50.904;9.192;2024-03-08T07:12:15;2.60;99.90
16732;DHT22;8484;50.904;9.192;2024-03-08T07:14:42;3.00;99.90
16732;DHT22;8484;50.904;9.192;2024-03-08T07:17:12;2.80;99.90
16732;DHT22;8484;50.904;9.192;2024-03-08T07:19:39;3.10;99.90
16732;DHT22;8484;50.904;9.192;2024-03-08T07:22:06;3.40;99.90
16732;DHT22;8484;50.904;9.192;2024-03-08T07:24:35;3.30;99.90
16732;DHT22;8484;50.904;9.192;2024-03-08T07:27:21;3.70;99.90
16732;DHT22;8484;50.904;9.192;2024-03-08T07:29:48;4.00;99.90
16732;DHT22;8484;50.904;9.192;2024-03-08T07:32:16;3.90;99.90
16732;DHT22;8484;50.904;9.192;2024-03-08T07:34:47;4.10;99.90
16732;DHT22;8484;50.904;9.192;2024-03-08T07:37:16;4.20;99.90
16732;DHT22;8484;50.904;9.192;2024-03-08T07:39:43;4.30;99.90
16732;DHT22;8484;50.904;9.192;2024-03-08T07:42:10;4.60;99.90
16732;DHT22;8484;50.904;9.192;2024-03-08T07:44:37;5.00;99.90
16732;DHT22;8484;50.904;9.192;2024-03-08T07:47:04;5.20;99.90
16732;DHT22;8484;50.904;9.192;2024-03-08T07:49:36;5.00;99.90
16732;DHT22;8484;50.904;9.192;2024-03-08T07:52:04;4.90;99.90
16732;DHT22;8484;50.904;9.192;2024-03-08T07:54:33;5.30;99.90
16732;DHT22;8484;50.904;9.192;2024-03-08T07:57:00;5.20;99.90
16732;DHT22;8484;50.904;9.192;2024-03-08T07:59:28;5.20;99.90
16732;DHT22;8484;50.904;9.192;2024-03-08T08:01:55;5.90;99.90
16732;DHT22;8484;50.904;9.192;2024-03-08T08:04:23;6.30;99.90
16732;DHT22;8484;50.904;9.192;2024-03-08T08:06:51;6.30;99.90
16732;DHT22;8484;50.904;9.192;2024-03-08T08:09:20;6.30;99.90
16732;DHT22;8484;50.904;9.192;2024-03-08T08:11:54;6.50;99.90
16732;DHT22;8484;50.904;9.192;2024-03-08T08:14:21;6.80;99.90
16732;DHT22;8484;50.904;9.192;2024-03-08T08:16:48;6.90;99.90
16732;DHT22;8484;50.904;9.192;2024-03-08T08:19:18;6.90;99.90
16732;DHT22;8484;50.904;9.192;2024-03-08T08:21:45;7.30;99.90
16732;DHT22;8484;50.904;9.192;2024-03-08T08:24:13;7.20;99.90
16732;DHT22;8484;50.904;9.192;2024-03-08T08:26:40;7.10;99.90
16732;DHT22;8484;50.904;9.192;2024-03-08T08:29:07;7.20;99.90
16732;DHT22;8484;50.904;9.192;2024-03-08T08:31:33;7.40;99.90
16732;DHT22;8484;50.904;9.192;2024-03-08T08:34:00;7.80;99.90
16732;DHT22;8484;50.904;9.192;2024-03-08T08:36:28;7.70;99.90
16732;DHT22;8484;50.904;9.192;2024-03-08T08:38:56;8.10;99.90
16732;DHT22;8484;50.904;9.192;2024-03-08T08:41:26;8.30;99.90
16732;DHT22;8484;50.904;9.192;2024-03-08T08:43:54;8.50;99.90
16732;DHT22;8484;50.904;9.192;2024-03-08T08:46:21;8.70;99.90
16732;DHT22;8484;50.904;9.192;2024-03-08T08:48:48;9.40;99.90
16732;DHT22;8484;50.904;9.192;2024-03-08T08:54:54;8.90;99.90
16732;DHT22;8484;50.904;9.192;2024-03-08T08:58:08;9.10;99.90
16732;DHT22;8484;50.904;9.192;2024-03-08T09:04:29;8.30;99.90
16732;DHT22;8484;50.904;9.192;2024-03-08T09:06:56;8.70;99.90
16732;DHT22;8484;50.904;9.192;2024-03-08T09:09:23;8.90;99.90
16732;DHT22;8484;50.904;9.192;2024-03-08T09:11:51;8.50;99.90
16732;DHT22;8484;50.904;9.192;2024-03-08T09:14:21;9.00;99.90
16732;DHT22;8484;50.904;9.192;2024-03-08T09:16:47;8.50;99.90
16732;DHT22;8484;50.904;9.192;2024-03-08T09:19:14;8.90;99.90
16732;DHT22;8484;50.904;9.192;2024-03-08T09:21:42;8.30;99.90
16732;DHT22;8484;50.904;9.192;2024-03-08T09:24:09;8.30;99.90
16732;DHT22;8484;50.904;9.192;2024-03-08T09:26:36;8.40;99.90
16732;DHT22;8484;50.904;9.192;2024-03-08T09:29:03;8.30;99.90
16732;DHT22;8484;50.904;9.192;2024-03-08T09:31:33;7.90;99.90
16732;DHT22;8484;50.904;9.192;2024-03-08T09:34:00;8.60;99.90
16732;DHT22;8484;50.904;9.192;2024-03-08T09:36:27;8.80;99.90
16732;DHT22;8484;50.904;9.192;2024-03-08T09:38:54;8.70;99.90
16732;DHT22;8484;50.904;9.192;2024-03-08T09:41:21;9.20;99.90
16732;DHT22;8484;50.904;9.192;2024-03-08T09:43:48;10.10;99.90
16732;DHT22;8484;50.904;9.192;2024-03-08T09:46:15;10.10;99.90
16732;DHT22;8484;50.904;9.192;2024-03-08T09:48:47;9.90;99.90
16732;DHT22;8484;50.904;9.192;2024-03-08T09:51:14;9.40;99.90
16732;DHT22;8484;50.904;9.192;2024-03-08T09:53:41;8.50;99.90
16732;DHT22;8484;50.904;9.192;2024-03-08T09:56:08;7.70;99.90
16732;DHT22;8484;50.904;9.192;2024-03-08T09:58:37;8.10;99.90
16732;DHT22;8484;50.904;9.192;2024-03-08T10:01:19;8.40;99.90
16732;DHT22;8484;50.904;9.192;2024-03-08T10:03:48;8.50;99.90
16732;DHT22;8484;50.904;9.192;2024-03-08T10:06:15;8.60;99.90
16732;DHT22;8484;50.904;9.192;2024-03-08T10:08:42;8.50;99.90
16732;DHT22;8484;50.904;9.192;2024-03-08T10:11:10;8.30;99.90
16732;DHT22;8484;50.904;9.192;2024-03-08T10:13:38;8.50;99.90
16732;DHT22;8484;50.904;9.192;2024-03-08T10:16:06;8.90;99.90
16732;DHT22;8484;50.904;9.192;2024-03-08T10:18:34;9.00;99.90
16732;DHT22;8484;50.904;9.192;2024-03-08T10:21:06;8.60;99.90
16732;DHT22;8484;50.904;9.192;2024-03-08T10:23:36;8.50;99.90
16732;DHT22;8484;50.904;9.192;2024-03-08T10:26:10;8.90;99.90
16732;DHT22;8484;50.904;9.192;2024-03-08T10:28:40;8.70;99.90
16732;DHT22;8484;50.904;9.192;2024-03-08T10:31:07;9.00;99.90
16732;DHT22;8484;50.904;9.192;2024-03-08T10:33:35;8.60;99.90
16732;DHT22;8484;50.904;9.192;2024-03-08T10:39:21;9.00;99.90
16732;DHT22;8484;50.904;9.192;2024-03-08T10:45:44;8.90;99.90
16732;DHT22;8484;50.904;9.192;2024-03-08T10:48:57;9.20;99.90
16732;DHT22;8484;50.904;9.192;2024-03-08T10:51:40;10.00;99.90
16732;DHT22;8484;50.904;9.192;2024-03-08T10:54:56;8.80;99.90
16732;DHT22;8484;50.904;9.192;2024-03-08T10:57:35;9.70;99.90
16732;DHT22;8484;50.904;9.192;2024-03-08T11:00:11;9.10;99.90
16732;DHT22;8484;50.904;9.192;2024-03-08T11:02:39;10.50;99.90
16732;DHT22;8484;50.904;9.192;2024-03-08T11:05:10;10.90;99.90
16732;DHT22;8484;50.904;9.192;2024-03-08T11:07:42;10.00;99.90
16732;DHT22;8484;50.904;9.192;2024-03-08T11:10:20;9.00;99.90
16732;DHT22;8484;50.904;9.192;2024-03-08T11:12:47;8.30;99.90
16732;DHT22;8484;50.904;9.192;2024-03-08T11:15:15;8.00;99.90
16732;DHT22;8484;50.904;9.192;2024-03-08T11:17:47;8.20;99.90
16732;DHT22;8484;50.904;9.192;2024-03-08T11:20:16;8.20;99.90
16732;DHT22;8484;50.904;9.192;2024-03-08T11:22:48;8.20;99.90
16732;DHT22;8484;50.904;9.192;2024-03-08T11:25:37;10.50;99.90
16732;DHT22;8484;50.904;9.192;2024-03-08T11:28:08;11.40;99.90
16732;DHT22;8484;50.904;9.192;2024-03-08T11:30:35;11.00;99.90
16732;DHT22;8484;50.904;9.192;2024-03-08T11:33:04;11.10;99.90
16732;DHT22;8484;50.904;9.192;2024-03-08T11:35:31;10.20;99.90
16732;DHT22;8484;50.904;9.192;2024-03-08T11:37:58;9.90;99.90
16732;DHT22;8484;50.904;9.192;2024-03-08T11:40:29;10.30;99.90
16732;DHT22;8484;50.904;9.192;2024-03-08T11:46:35;10.70;99.90
16732;DHT22;8484;50.904;9.192;2024-03-08T11:49:17;11.50;99.90
16732;DHT22;8484;50.904;9.192;2024-03-08T11:51:44;11.80;99.90
16732;DHT22;8484;50.904;9.192;2024-03-08T11:54:12;11.10;99.90
16732;DHT22;8484;50.904;9.192;2024-03-08T11:56:39;11.20;99.90
16732;DHT22;8484;50.904;9.192;2024-03-08T11:59:11;11.30;99.90
16732;DHT22;8484;50.904;9.192;2024-03-08T12:01:39;11.50;99.90
16732;DHT22;8484;50.904;9.192;2024-03-08T12:04:05;12.10;99.90
16732;DHT22;8484;50.904;9.192;2024-03-08T12:06:40;11.90;99.90
16732;DHT22;8484;50.904;9.192;2024-03-08T12:09:11;11.40;99.90
16732;DHT22;8484;50.904;9.192;2024-03-08T12:11:40;10.90;99.90
16732;DHT22;8484;50.904;9.192;2024-03-08T12:14:09;11.90;99.90
16732;DHT22;8484;50.904;9.192;2024-03-08T12:16:36;11.80;99.90
16732;DHT22;8484;50.904;9.192;2024-03-08T12:19:03;11.40;99.90
16732;DHT22;8484;50.904;9.192;2024-03-08T12:21:31;11.40;99.90
16732;DHT22;8484;50.904;9.192;2024-03-08T12:24:04;11.80;99.90
16732;DHT22;8484;50.904;9.192;2024-03-08T12:26:38;11.20;99.90
16732;DHT22;8484;50.904;9.192;2024-03-08T12:29:17;12.00;99.90
16732;DHT22;8484;50.904;9.192;2024-03-08T12:31:46;11.80;99.90
16732;DHT22;8484;50.904;9.192;2024-03-08T12:34:13;11.40;99.90
16732;DHT22;8484;50.904;9.192;2024-03-08T12:36:45;11.60;99.90
16732;DHT22;8484;50.904;9.192;2024-03-08T12:39:16;10.50;99.90
16732;DHT22;8484;50.904;9.192;2024-03-08T12:41:43;11.30;99.90
16732;DHT22;8484;50.904;9.192;2024-03-08T12:44:12;11.70;99.90
16732;DHT22;8484;50.904;9.192;2024-03-08T12:46:40;11.30;99.90
16732;DHT22;8484;50.904;9.192;2024-03-08T12:49:10;12.00;99.90
16732;DHT22;8484;50.904;9.192;2024-03-08T12:51:38;11.90;99.90
16732;DHT22;8484;50.904;9.192;2024-03-08T12:54:05;12.50;99.90
16732;DHT22;8484;50.904;9.192;2024-03-08T12:56:34;12.70;99.90
16732;DHT22;8484;50.904;9.192;2024-03-08T12:59:03;11.00;99.90
16732;DHT22;8484;50.904;9.192;2024-03-08T13:01:31;10.90;99.90
16732;DHT22;8484;50.904;9.192;2024-03-08T13:04:00;11.60;99.90
16732;DHT22;8484;50.904;9.192;2024-03-08T13:06:27;10.80;99.90
16732;DHT22;8484;50.904;9.192;2024-03-08T13:08:54;10.80;99.90
16732;DHT22;8484;50.904;9.192;2024-03-08T13:11:22;11.30;99.90
16732;DHT22;8484;50.904;9.192;2024-03-08T13:13:50;11.90;99.90
16732;DHT22;8484;50.904;9.192;2024-03-08T13:16:17;11.90;99.90
16732;DHT22;8484;50.904;9.192;2024-03-08T13:18:45;11.70;99.90
16732;DHT22;8484;50.904;9.192;2024-03-08T13:21:15;11.00;99.90
16732;DHT22;8484;50.904;9.192;2024-03-08T13:23:45;10.60;99.90
16732;DHT22;8484;50.904;9.192;2024-03-08T13:26:15;11.40;99.90
16732;DHT22;8484;50.904;9.192;2024-03-08T13:28:43;10.60;99.90
16732;DHT22;8484;50.904;9.192;2024-03-08T13:31:10;11.10;99.90
16732;DHT22;8484;50.904;9.192;2024-03-08T13:33:37;11.20;99.90
16732;DHT22;8484;50.904;9.192;2024-03-08T13:36:07;11.50;99.90
16732;DHT22;8484;50.904;9.192;2024-03-08T13:38:42;11.30;99.90
16732;DHT22;8484;50.904;9.192;2024-03-08T13:41:10;11.00;99.90
16732;DHT22;8484;50.904;9.192;2024-03-08T13:43:40;10.60;99.90
16732;DHT22;8484;50.904;9.192;2024-03-08T13:46:07;11.40;99.90
16732;DHT22;8484;50.904;9.192;2024-03-08T13:48:35;11.10;99.90
16732;DHT22;8484;50.904;9.192;2024-03-08T13:51:04;11.40;99.90
16732;DHT22;8484;50.904;9.192;2024-03-08T13:53:32;11.50;99.90
16732;DHT22;8484;50.904;9.192;2024-03-08T13:56:02;11.20;99.90
16732;DHT22;8484;50.904;9.192;2024-03-08T13:58:29;11.30;99.90
16732;DHT22;8484;50.904;9.192;2024-03-08T14:00:56;11.30;99.90
16732;DHT22;8484;50.904;9.192;2024-03-08T14:03:23;11.00;99.90
16732;DHT22;8484;50.904;9.192;2024-03-08T14:08:55;11.80;99.90
16732;DHT22;8484;50.904;9.192;2024-03-08T14:11:25;11.00;99.90
16732;DHT22;8484;50.904;9.192;2024-03-08T14:13:59;11.30;99.90
16732;DHT22;8484;50.904;9.192;2024-03-08T14:16:26;12.00;99.90
16732;DHT22;8484;50.904;9.192;2024-03-08T14:18:53;10.90;99.90
16732;DHT22;8484;50.904;9.192;2024-03-08T14:21:20;10.80;99.90
16732;DHT22;8484;50.904;9.192;2024-03-08T14:23:47;10.80;99.90
16732;DHT22;8484;50.904;9.192;2024-03-08T14:26:14;11.00;99.90
16732;DHT22;8484;50.904;9.192;2024-03-08T14:28:42;10.90;99.90
16732;DHT22;8484;50.904;9.192;2024-03-08T14:31:10;11.00;99.90
16732;DHT22;8484;50.904;9.192;2024-03-08T14:33:37;10.90;99.90
16732;DHT22;8484;50.904;9.192;2024-03-08T14:36:05;10.90;99.90
16732;DHT22;8484;50.904;9.192;2024-03-08T14:38:33;10.90;99.90
16732;DHT22;8484;50.904;9.192;2024-03-08T14:41:00;10.90;99.90
16732;DHT22;8484;50.904;9.192;2024-03-08T14:43:29;11.10;99.90
16732;DHT22;8484;50.904;9.192;2024-03-08T14:45:57;10.70;99.90
16732;DHT22;8484;50.904;9.192;2024-03-08T14:48:24;11.10;99.90
16732;DHT22;8484;50.904;9.192;2024-03-08T14:50:51;10.70;99.90
16732;DHT22;8484;50.904;9.192;2024-03-08T14:53:18;10.70;99.90
16732;DHT22;8484;50.904;9.192;2024-03-08T14:55:45;10.90;99.90
16732;DHT22;8484;50.904;9.192;2024-03-08T14:58:12;10.70;99.90
16732;DHT22;8484;50.904;9.192;2024-03-08T15:00:39;10.80;99.90
16732;DHT22;8484;50.904;9.192;2024-03-08T15:03:08;10.90;99.90
16732;DHT22;8484;50.904;9.192;2024-03-08T15:05:38;11.00;99.90
16732;DHT22;8484;50.904;9.192;2024-03-08T15:08:07;10.80;99.90
16732;DHT22;8484;50.904;9.192;2024-03-08T15:10:45;11.20;99.90
16732;DHT22;8484;50.904;9.192;2024-03-08T15:13:11;10.80;99.90
16732;DHT22;8484;50.904;9.192;2024-03-08T15:15:46;10.90;99.90
16732;DHT22;8484;50.904;9.192;2024-03-08T15:18:22;10.80;99.90
16732;DHT22;8484;50.904;9.192;2024-03-08T15:20:52;10.70;99.90
16732;DHT22;8484;50.904;9.192;2024-03-08T15:23:18;10.60;99.90
16732;DHT22;8484;50.904;9.192;2024-03-08T15:25:46;10.60;99.90
16732;DHT22;8484;50.904;9.192;2024-03-08T15:28:14;10.60;99.90
16732;DHT22;8484;50.904;9.192;2024-03-08T15:30:44;10.50;99.90
16732;DHT22;8484;50.904;9.192;2024-03-08T15:33:12;10.40;99.90
16732;DHT22;8484;50.904;9.192;2024-03-08T15:35:42;10.20;99.90
16732;DHT22;8484;50.904;9.192;2024-03-08T15:38:14;10.20;99.90
16732;DHT22;8484;50.904;9.192;2024-03-08T15:40:41;10.20;99.90
16732;DHT22;8484;50.904;9.192;2024-03-08T15:43:08;10.00;99.90
16732;DHT22;8484;50.904;9.192;2024-03-08T15:45:35;10.00;99.90
16732;DHT22;8484;50.904;9.192;2024-03-08T15:48:03;9.90;99.90
16732;DHT22;8484;50.904;9.192;2024-03-08T15:50:30;9.80;99.90
16732;DHT22;8484;50.904;9.192;2024-03-08T15:53:02;9.70;99.90
16732;DHT22;8484;50.904;9.192;2024-03-08T15:55:29;9.70;99.90
16732;DHT22;8484;50.904;9.192;2024-03-08T15:57:57;9.70;99.90
16732;DHT22;8484;50.904;9.192;2024-03-08T16:00:26;9.50;99.90
16732;DHT22;8484;50.904;9.192;2024-03-08T16:03:01;9.50;99.90
16732;DHT22;8484;50.904;9.192;2024-03-08T16:05:32;9.50;99.90
16732;DHT22;8484;50.904;9.192;2024-03-08T16:07:59;9.40;99.90
16732;DHT22;8484;50.904;9.192;2024-03-08T16:10:27;9.40;99.90
16732;DHT22;8484;50.904;9.192;2024-03-08T16:12:55;9.40;99.90
16732;DHT22;8484;50.904;9.192;2024-03-08T16:15:22;9.30;99.90
16732;DHT22;8484;50.904;9.192;2024-03-08T16:17:51;9.20;99.90
16732;DHT22;8484;50.904;9.192;2024-03-08T16:20:18;9.20;99.90
16732;DHT22;8484;50.904;9.192;2024-03-08T16:22:47;9.20;99.90
16732;DHT22;8484;50.904;9.192;2024-03-08T16:25:17;8.90;99.90
16732;DHT22;8484;50.904;9.192;2024-03-08T16:27:47;8.80;99.90